createdAt,value
2017-05-13T08:25:15.656Z,17.3
2017-05-13T08:26:16.341Z,17.26
2017-05-13T08:27:17.007Z,17.29
2017-05-13T08:28:17.685Z,17.2
2017-05-13T08:29:18.363Z,17.31
2017-05-13T08:30:19.050Z,17.27
2017-05-13T08:31:19.728Z,17.33
2017-05-13T08:32:20.413Z,17.27
2017-05-13T08:33:21.090Z,17.3
2017-05-13T08:34:21.759Z,17.45
2017-05-13T08:35:22.436Z,17.63
2017-05-13T08:36:23.166Z,17.64
2017-05-13T08:37:23.889Z,17.7
2017-05-13T08:38:24.671Z,17.71
2017-05-13T08:39:25.314Z,17.79
2017-05-13T08:40:25.981Z,17.76
2017-05-13T08:41:26.679Z,17.76
2017-05-13T08:42:27.354Z,17.74
2017-05-13T08:43:28.037Z,17.63
2017-05-13T08:44:28.725Z,17.59
2017-05-13T08:45:29.399Z,17.59
2017-05-13T08:46:30.089Z,17.51
2017-05-13T08:47:30.768Z,17.54
2017-05-13T08:48:31.459Z,17.63
2017-05-13T08:49:32.163Z,17.52
2017-05-13T08:50:32.839Z,17.6
2017-05-13T08:51:33.541Z,17.54
2017-05-13T08:52:34.225Z,17.48
2017-05-13T08:53:34.909Z,17.42
2017-05-13T08:54:35.613Z,17.57
2017-05-13T08:55:36.295Z,17.59
2017-05-13T08:56:37.004Z,17.74
2017-05-13T08:57:37.688Z,17.78
2017-05-13T08:58:38.404Z,17.85
2017-05-13T08:59:39.087Z,17.8
2017-05-13T09:00:39.755Z,17.74
2017-05-13T09:01:40.492Z,17.82
2017-05-13T09:02:41.214Z,17.9
2017-05-13T09:03:41.913Z,18.04
2017-05-13T09:04:42.607Z,17.92
2017-05-13T09:05:43.315Z,17.89
2017-05-13T09:06:43.986Z,17.87
2017-05-13T09:07:44.698Z,17.83
2017-05-13T09:08:45.407Z,17.74
2017-05-13T09:09:46.070Z,17.83
2017-05-13T09:10:46.786Z,17.74
2017-05-13T09:11:47.492Z,17.8
2017-05-13T09:12:48.174Z,17.76
2017-05-13T09:13:48.855Z,17.65
2017-05-13T09:14:49.567Z,17.74
2017-05-13T09:15:50.244Z,17.74
2017-05-13T09:16:50.904Z,17.89
2017-05-13T09:17:51.596Z,17.89
2017-05-13T09:18:52.268Z,17.86
2017-05-13T09:19:52.988Z,17.94
2017-05-13T09:20:53.721Z,17.89
2017-05-13T09:21:54.430Z,17.89
2017-05-13T09:22:55.105Z,17.97
2017-05-13T09:23:55.773Z,17.95
2017-05-13T09:24:56.446Z,17.86
2017-05-13T09:25:57.129Z,18.01
2017-05-13T09:26:57.839Z,18
2017-05-13T09:27:58.517Z,18.03
2017-05-13T09:28:59.181Z,18.1
2017-05-13T09:29:59.862Z,17.97
2017-05-13T09:31:00.531Z,18
2017-05-13T09:32:01.208Z,18.04
2017-05-13T09:33:01.901Z,18.07
2017-05-13T09:34:02.603Z,18.05
2017-05-13T09:35:03.324Z,18.04
2017-05-13T09:36:04.044Z,18.01
2017-05-13T09:37:04.714Z,17.98
2017-05-13T09:38:05.395Z,18.01
2017-05-13T09:39:06.095Z,18.07
2017-05-13T09:40:06.783Z,17.98
2017-05-13T09:41:07.455Z,18.01
2017-05-13T09:42:08.122Z,18.15
2017-05-13T09:43:08.839Z,18.16
2017-05-13T09:44:09.530Z,18.28
2017-05-13T09:45:10.254Z,18.4
2017-05-13T09:46:10.933Z,18.52
2017-05-13T09:47:11.602Z,18.55
2017-05-13T09:48:12.273Z,18.75
2017-05-13T09:49:12.944Z,18.84
2017-05-13T09:50:13.625Z,18.86
2017-05-13T09:51:14.355Z,18.9
2017-05-13T09:52:14.995Z,18.9
2017-05-13T09:53:15.676Z,18.89
2017-05-13T09:54:16.342Z,18.84
2017-05-13T09:55:17.044Z,18.62
2017-05-13T09:56:17.752Z,18.65
2017-05-13T09:57:18.430Z,18.83
2017-05-13T09:58:19.150Z,18.88
2017-05-13T09:59:19.849Z,18.9
2017-05-13T10:00:20.548Z,18.9
2017-05-13T10:01:21.270Z,18.96
2017-05-13T10:02:21.978Z,18.9
2017-05-13T10:03:22.650Z,18.83
2017-05-13T10:04:23.334Z,18.93
2017-05-13T10:05:24.022Z,18.98
2017-05-13T10:06:24.738Z,19.04
2017-05-13T10:07:25.458Z,19
2017-05-13T10:08:26.140Z,19.08
2017-05-13T10:09:26.864Z,19.16
2017-05-13T10:10:27.569Z,19.21
2017-05-13T10:11:28.239Z,19.44
2017-05-13T10:12:28.915Z,19.54
2017-05-13T10:13:29.590Z,19.54
2017-05-13T10:14:30.280Z,19.74
2017-05-13T10:15:30.950Z,19.81
2017-05-13T10:16:31.650Z,19.74
2017-05-13T10:17:32.318Z,19.86
2017-05-13T10:18:32.993Z,19.95
2017-05-13T10:19:33.684Z,20.02
2017-05-13T10:20:34.390Z,20
2017-05-13T10:21:35.076Z,20.07
2017-05-13T10:22:35.796Z,20.14
2017-05-13T10:23:36.477Z,20.14
2017-05-13T10:24:37.187Z,20.19
2017-05-13T10:25:37.861Z,20.14
2017-05-13T10:26:38.542Z,20.29
2017-05-13T10:27:39.266Z,20.36
2017-05-13T10:28:39.968Z,20.43
2017-05-13T10:29:40.659Z,20.41
2017-05-13T10:30:41.330Z,20.51
2017-05-13T10:31:42.041Z,20.66
2017-05-13T10:32:42.730Z,20.77
2017-05-13T10:33:43.442Z,20.56
2017-05-13T10:34:44.114Z,20.31
2017-05-13T10:35:44.809Z,20.48
2017-05-13T10:36:45.545Z,20.41
2017-05-13T10:37:46.280Z,20.52
2017-05-13T10:38:46.955Z,20.51
2017-05-13T10:39:47.627Z,20.58
2017-05-13T10:40:48.302Z,20.47
2017-05-13T10:41:49.035Z,20.51
2017-05-13T10:42:49.697Z,20.58
2017-05-13T10:43:50.405Z,20.56
2017-05-13T10:44:51.099Z,20.59
2017-05-13T10:45:51.783Z,20.67
2017-05-13T10:46:52.481Z,20.55
2017-05-13T10:47:53.170Z,20.48
2017-05-13T10:48:53.895Z,20.55
2017-05-13T10:49:54.551Z,20.51
2017-05-13T10:50:55.342Z,20.5
2017-05-13T10:51:56.085Z,20.43
2017-05-13T10:52:56.779Z,20.41
2017-05-13T10:53:57.451Z,20.4
2017-05-13T10:54:58.180Z,20.5
2017-05-13T10:55:58.876Z,20.44
2017-05-13T10:56:59.581Z,20.44
2017-05-13T10:58:00.309Z,20.43
2017-05-13T10:59:01.026Z,20.31
2017-05-13T11:00:01.738Z,20.28
2017-05-13T11:01:02.407Z,20.21
2017-05-13T11:02:03.122Z,20.36
2017-05-13T11:03:03.808Z,20.43
2017-05-13T11:04:06.160Z,20.39
2017-05-13T11:05:06.028Z,20.44
2017-05-13T11:06:06.697Z,20.52
2017-05-13T11:07:07.390Z,20.65
2017-05-13T11:08:08.092Z,20.75
2017-05-13T11:09:08.784Z,20.84
2017-05-13T11:10:09.471Z,20.82
2017-05-13T11:11:10.148Z,20.97
2017-05-13T11:12:10.828Z,20.97
2017-05-13T11:13:11.536Z,20.93
2017-05-13T11:14:12.216Z,21.03
2017-05-13T11:15:12.895Z,20.96
2017-05-13T11:16:13.566Z,20.96
2017-05-13T11:17:14.254Z,21.11
2017-05-13T11:18:14.963Z,21.05
2017-05-13T11:19:15.647Z,21.06
2017-05-13T11:20:16.399Z,21.14
2017-05-13T11:21:17.089Z,21.17
2017-05-13T11:22:17.802Z,21.17
2017-05-13T11:23:18.478Z,21.15
2017-05-13T11:24:19.179Z,21.24
2017-05-13T11:25:19.866Z,21.06
2017-05-13T11:26:20.553Z,20.99
2017-05-13T11:27:21.276Z,21
2017-05-13T11:28:21.965Z,21.03
2017-05-13T11:29:22.666Z,21
2017-05-13T11:30:23.358Z,21.15
2017-05-13T11:31:24.070Z,21.27
2017-05-13T11:32:24.812Z,21.33
2017-05-13T11:33:25.507Z,21.4
2017-05-13T11:34:26.221Z,21.42
2017-05-13T11:35:26.921Z,21.36
2017-05-13T11:36:27.675Z,21.29
2017-05-13T11:37:28.350Z,21.25
2017-05-13T11:38:29.049Z,21.27
2017-05-13T11:39:29.741Z,21.22
2017-05-13T11:40:30.414Z,21.32
2017-05-13T11:41:31.108Z,21.39
2017-05-13T11:42:31.949Z,21.35
2017-05-13T11:43:32.663Z,21.45
2017-05-13T11:44:33.349Z,21.45
2017-05-13T11:45:34.049Z,21.52
2017-05-13T11:46:34.767Z,21.46
2017-05-13T11:47:35.441Z,21.5
2017-05-13T11:48:36.144Z,21.55
2017-05-13T11:49:36.991Z,21.48
2017-05-13T11:50:37.674Z,21.52
2017-05-13T11:51:38.374Z,21.51
2017-05-13T11:52:39.215Z,21.52
2017-05-13T11:53:39.967Z,21.6
2017-05-13T11:54:40.650Z,21.58
2017-05-13T11:55:41.344Z,21.51
2017-05-13T11:56:42.326Z,21.55
2017-05-13T11:57:43.018Z,21.5
2017-05-13T11:58:43.743Z,21.6
2017-05-13T11:59:44.434Z,21.52
2017-05-13T12:00:45.170Z,21.52
2017-05-13T12:01:46.062Z,21.52
2017-05-13T12:02:46.759Z,21.4
2017-05-13T12:03:47.496Z,21.29
2017-05-13T12:04:48.199Z,21.24
2017-05-13T12:05:48.881Z,21.14
2017-05-13T12:06:49.602Z,21.14
2017-05-13T12:07:50.300Z,21.11
2017-05-13T12:08:51.096Z,21.15
2017-05-13T12:09:51.776Z,21.07
2017-05-13T12:10:52.519Z,21.06
2017-05-13T12:11:53.215Z,21.05
2017-05-13T12:12:53.917Z,21
2017-05-13T12:13:54.614Z,20.95
2017-05-13T12:14:55.369Z,20.93
2017-05-13T12:15:56.052Z,20.84
2017-05-13T12:16:56.895Z,20.92
2017-05-13T12:17:57.641Z,20.96
2017-05-13T12:18:58.344Z,20.85
2017-05-13T12:19:59.031Z,20.77
2017-05-13T12:20:59.728Z,20.78
2017-05-13T12:22:00.446Z,20.63
2017-05-13T12:23:01.132Z,20.62
2017-05-13T12:24:01.874Z,20.67
2017-05-13T12:25:02.571Z,20.55
2017-05-13T12:26:03.258Z,20.48
2017-05-13T12:27:03.951Z,20.41
2017-05-13T12:28:04.618Z,20.37
2017-05-13T12:29:05.326Z,20.29
2017-05-13T12:30:06.033Z,20.22
2017-05-13T12:31:06.744Z,20.14
2017-05-13T12:32:07.425Z,20.06
2017-05-13T12:33:08.113Z,20.07
2017-05-13T12:34:08.826Z,20
2017-05-13T12:35:09.550Z,20.02
2017-05-13T12:36:10.222Z,19.96
2017-05-13T12:37:10.916Z,19.88
2017-05-13T12:38:11.624Z,19.85
2017-05-13T12:39:12.431Z,19.82
2017-05-13T12:40:13.147Z,19.86
2017-05-13T12:41:13.849Z,19.71
2017-05-13T12:42:14.564Z,19.79
2017-05-13T12:43:15.245Z,19.71
2017-05-13T12:44:15.945Z,19.7
2017-05-13T12:45:16.693Z,19.67
2017-05-13T12:46:17.367Z,19.66
2017-05-13T12:47:18.077Z,19.64
2017-05-13T12:48:18.872Z,19.54
2017-05-13T12:49:19.583Z,19.59
2017-05-13T12:50:20.245Z,19.58
2017-05-13T12:51:20.958Z,19.54
2017-05-13T12:52:21.633Z,19.55
2017-05-13T12:53:22.336Z,19.51
2017-05-13T12:54:23.008Z,19.48
2017-05-13T12:55:23.724Z,19.45
2017-05-13T12:56:24.417Z,19.41
2017-05-13T12:57:25.133Z,19.4
2017-05-13T12:58:25.933Z,19.29
2017-05-13T12:59:26.607Z,19.27
2017-05-13T13:00:27.323Z,19.21
2017-05-13T13:01:28.065Z,19.21
2017-05-13T13:02:28.877Z,19.08
2017-05-13T13:03:29.598Z,19
2017-05-13T13:04:30.326Z,18.89
2017-05-13T13:05:31.138Z,18.88
2017-05-13T13:06:31.876Z,18.83
2017-05-13T13:07:32.591Z,18.75
2017-05-13T13:08:33.283Z,18.77
2017-05-13T13:09:34.001Z,18.68
2017-05-13T13:10:34.675Z,18.75
2017-05-13T13:11:35.574Z,18.68
2017-05-13T13:12:36.349Z,18.59
2017-05-13T13:13:37.162Z,18.58
2017-05-13T13:14:37.851Z,18.47
2017-05-13T13:15:38.588Z,18.4
2017-05-13T13:16:39.278Z,18.38
2017-05-13T13:17:39.990Z,18.31
2017-05-13T13:18:40.664Z,18.15
2017-05-13T13:19:41.381Z,18.13
2017-05-13T13:20:42.091Z,18.2
2017-05-13T13:21:42.786Z,18.15
2017-05-13T13:22:43.498Z,18.05
2017-05-13T13:23:44.176Z,18.04
2017-05-13T13:24:44.838Z,18.04
2017-05-13T13:25:45.519Z,18.08
2017-05-13T13:26:46.208Z,17.98
2017-05-13T13:27:46.907Z,18.07
2017-05-13T13:28:47.593Z,17.87
2017-05-13T13:29:48.311Z,17.82
2017-05-13T13:30:48.989Z,17.83
2017-05-13T13:31:49.683Z,17.82
2017-05-13T13:32:50.382Z,17.82
2017-05-13T13:33:51.102Z,17.8
2017-05-13T13:34:51.813Z,17.82
2017-05-13T13:35:52.492Z,17.87
2017-05-13T13:36:53.166Z,17.9
2017-05-13T13:37:53.846Z,17.87
2017-05-13T13:38:54.543Z,17.82
2017-05-13T13:39:55.245Z,17.72
2017-05-13T13:40:55.965Z,17.76
2017-05-13T13:41:56.642Z,17.74
2017-05-13T13:42:57.367Z,17.71
2017-05-13T13:43:58.076Z,17.8
2017-05-13T13:44:58.742Z,17.76
2017-05-13T13:45:59.419Z,17.83
2017-05-13T13:47:00.104Z,17.82
2017-05-13T13:48:00.824Z,17.82
2017-05-13T13:49:01.545Z,17.92
2017-05-13T13:50:02.219Z,17.92
2017-05-13T13:51:02.891Z,17.95
2017-05-13T13:52:03.605Z,17.97
2017-05-13T13:53:04.277Z,17.9
2017-05-13T13:54:04.955Z,18.05
2017-05-13T13:55:05.642Z,18.03
2017-05-13T13:56:06.360Z,18.1
2017-05-13T13:57:07.082Z,18.03
2017-05-13T13:58:07.790Z,18.05
2017-05-13T13:59:08.473Z,18.05
2017-05-13T14:00:09.143Z,18
2017-05-13T14:01:09.819Z,18.05
2017-05-13T14:02:10.544Z,18.08
2017-05-13T14:03:11.264Z,18.07
2017-05-13T14:04:11.942Z,18
2017-05-13T14:05:12.655Z,18.07
2017-05-13T14:06:13.338Z,17.97
2017-05-13T14:07:14.035Z,17.97
2017-05-13T14:08:14.738Z,17.97
2017-05-13T14:09:15.446Z,17.92
2017-05-13T14:10:16.118Z,17.92
2017-05-13T14:11:16.796Z,17.9
2017-05-13T14:12:17.475Z,17.83
2017-05-13T14:13:18.190Z,17.86
2017-05-13T14:14:18.924Z,17.83
2017-05-13T14:15:19.604Z,17.95
2017-05-13T14:16:20.310Z,17.92
2017-05-13T14:17:20.998Z,17.87
2017-05-13T14:18:21.690Z,17.92
2017-05-13T14:19:22.368Z,17.85
2017-05-13T14:20:23.045Z,17.85
2017-05-13T14:21:23.730Z,17.9
2017-05-13T14:22:24.476Z,17.9
2017-05-13T14:23:25.165Z,17.9
2017-05-13T14:24:25.840Z,17.83
2017-05-13T14:25:26.562Z,17.86
2017-05-13T14:26:27.287Z,17.79
2017-05-13T14:27:27.964Z,17.79
2017-05-13T14:28:28.646Z,17.8
2017-05-13T14:29:29.355Z,17.86
2017-05-13T14:30:30.059Z,17.85
2017-05-13T14:31:30.760Z,17.79
2017-05-13T14:32:31.434Z,17.86
2017-05-13T14:33:32.136Z,17.89
2017-05-13T14:34:32.819Z,17.76
2017-05-13T14:35:33.503Z,17.76
2017-05-13T14:36:34.210Z,17.82
2017-05-13T14:37:34.930Z,17.78
2017-05-13T14:38:35.606Z,17.79
2017-05-13T14:39:36.275Z,17.76
2017-05-13T14:40:36.941Z,17.72
2017-05-13T14:41:37.646Z,17.67
2017-05-13T14:42:38.337Z,17.54
2017-05-13T14:43:39.077Z,17.54
2017-05-13T14:44:39.756Z,17.63
2017-05-13T14:45:40.475Z,17.54
2017-05-13T14:46:41.182Z,17.56
2017-05-13T14:47:41.851Z,17.48
2017-05-13T14:48:42.525Z,17.49
2017-05-13T14:49:43.218Z,17.44
2017-05-13T14:50:43.976Z,17.48
2017-05-13T14:51:44.693Z,17.51
2017-05-13T14:52:45.389Z,17.48
2017-05-13T14:53:46.097Z,17.51
2017-05-13T14:54:46.769Z,17.63
2017-05-13T14:55:47.455Z,17.65
2017-05-13T14:56:48.115Z,17.68
2017-05-13T14:57:48.793Z,17.67
2017-05-13T14:58:49.456Z,17.72
2017-05-13T14:59:50.123Z,17.76
2017-05-13T15:00:50.799Z,17.68
2017-05-13T15:01:51.476Z,17.76
2017-05-13T15:02:52.160Z,17.79
2017-05-13T15:03:52.891Z,17.76
2017-05-13T15:04:53.566Z,17.65
2017-05-13T15:05:54.260Z,17.64
2017-05-13T15:06:54.949Z,17.68
2017-05-13T15:07:55.638Z,17.63
2017-05-13T15:08:56.340Z,17.64
2017-05-13T15:09:57.014Z,17.7
2017-05-13T15:10:57.733Z,17.82
2017-05-13T15:11:58.405Z,17.86
2017-05-13T15:12:59.096Z,17.94
2017-05-13T15:13:59.792Z,17.9
2017-05-13T15:15:00.504Z,18.04
2017-05-13T15:16:01.214Z,18.03
2017-05-13T15:17:01.877Z,18.04
2017-05-13T15:18:02.584Z,18.22
2017-05-13T15:19:03.288Z,18.07
2017-05-13T15:20:04.012Z,18.2
2017-05-13T15:21:04.664Z,18.33
2017-05-13T15:22:05.342Z,18.41
2017-05-13T15:23:06.042Z,18.49
2017-05-13T15:24:06.735Z,18.52
2017-05-13T15:25:07.416Z,18.47
2017-05-13T15:26:08.123Z,18.56
2017-05-13T15:27:08.801Z,18.52
2017-05-13T15:28:09.482Z,18.6
2017-05-13T15:29:10.190Z,18.7
2017-05-13T15:30:10.900Z,18.89
2017-05-13T15:31:11.591Z,18.9
2017-05-13T15:32:12.313Z,18.89
2017-05-13T15:33:13.002Z,18.92
2017-05-13T15:34:13.698Z,18.86
2017-05-13T15:35:14.380Z,18.78
2017-05-13T15:36:15.063Z,18.88
2017-05-13T15:37:15.767Z,18.89
2017-05-13T15:38:16.456Z,18.89
2017-05-13T15:39:17.170Z,18.92
2017-05-13T15:40:17.859Z,18.93
2017-05-13T15:41:18.561Z,18.88
2017-05-13T15:42:19.253Z,18.93
2017-05-13T15:43:19.926Z,18.98
2017-05-13T15:44:20.641Z,18.96
2017-05-13T15:45:21.330Z,18.9
2017-05-13T15:46:22.027Z,19
2017-05-13T15:47:22.714Z,18.88
2017-05-13T15:48:23.402Z,18.95
2017-05-13T15:49:24.100Z,18.84
2017-05-13T15:50:24.794Z,18.89
2017-05-13T15:51:25.471Z,18.95
2017-05-13T15:52:26.175Z,18.8
2017-05-13T15:53:26.846Z,18.78
2017-05-13T15:54:27.526Z,18.75
2017-05-13T15:55:28.204Z,18.71
2017-05-13T15:56:28.908Z,18.66
2017-05-13T15:57:29.626Z,18.8
2017-05-13T15:58:30.360Z,18.77
2017-05-13T15:59:31.073Z,18.88
2017-05-13T16:00:31.745Z,18.92
2017-05-13T16:01:32.431Z,18.88
2017-05-13T16:02:33.108Z,18.8
2017-05-13T16:03:33.842Z,18.81
2017-05-13T16:04:34.498Z,18.86
2017-05-13T16:05:35.215Z,18.8
2017-05-13T16:06:35.897Z,18.73
2017-05-13T16:07:36.586Z,18.75
2017-05-13T16:08:37.286Z,18.73
2017-05-13T16:09:37.970Z,18.75
2017-05-13T16:10:38.670Z,18.68
2017-05-13T16:11:39.356Z,18.59
2017-05-13T16:12:40.029Z,18.7
2017-05-13T16:13:40.751Z,18.74
2017-05-13T16:14:41.424Z,18.66
2017-05-13T16:15:42.101Z,18.71
2017-05-13T16:16:42.777Z,18.63
2017-05-13T16:17:43.478Z,18.7
2017-05-13T16:18:44.158Z,18.68
2017-05-13T16:19:44.844Z,18.68
2017-05-13T16:20:45.554Z,18.56
2017-05-13T16:21:46.270Z,18.6
2017-05-13T16:22:46.960Z,18.6
2017-05-13T16:23:47.637Z,18.6
2017-05-13T16:24:48.349Z,18.6
2017-05-13T16:25:49.035Z,18.63
2017-05-13T16:26:49.756Z,18.68
2017-05-13T16:27:50.449Z,18.66
2017-05-13T16:28:51.140Z,18.65
2017-05-13T16:29:51.824Z,18.62
2017-05-13T16:30:52.526Z,18.63
2017-05-13T16:31:53.209Z,18.58
2017-05-13T16:32:53.897Z,18.58
2017-05-13T16:33:54.594Z,18.52
2017-05-13T16:34:55.272Z,18.49
2017-05-13T16:35:55.961Z,18.45
2017-05-13T16:36:56.642Z,18.38
2017-05-13T16:37:57.356Z,18.34
2017-05-13T16:38:58.056Z,18.4
2017-05-13T16:39:58.787Z,18.37
2017-05-13T16:40:59.466Z,18.38
2017-05-13T16:42:00.156Z,18.41
2017-05-13T16:43:00.859Z,18.34
2017-05-13T16:44:01.558Z,18.41
2017-05-13T16:45:02.246Z,18.38
2017-05-13T16:46:02.931Z,18.4
2017-05-13T16:47:03.654Z,18.38
2017-05-13T16:48:04.375Z,18.4
2017-05-13T16:49:05.062Z,18.37
2017-05-13T16:50:05.772Z,18.41
2017-05-13T16:51:06.438Z,18.41
2017-05-13T16:52:07.126Z,18.38
2017-05-13T16:53:07.801Z,18.4
2017-05-13T16:54:08.503Z,18.4
2017-05-13T16:55:09.174Z,18.44
2017-05-13T16:56:09.868Z,18.47
2017-05-13T16:57:10.578Z,18.45
2017-05-13T16:58:11.271Z,18.41
2017-05-13T16:59:11.971Z,18.41
2017-05-13T17:00:12.649Z,18.43
2017-05-13T17:01:13.362Z,18.4
2017-05-13T17:02:14.044Z,18.37
2017-05-13T17:03:14.723Z,18.35
2017-05-13T17:04:15.425Z,18.38
2017-05-13T17:05:16.110Z,18.37
2017-05-13T17:06:16.776Z,18.34
2017-05-13T17:07:17.457Z,18.33
2017-05-13T17:08:18.139Z,18.31
2017-05-13T17:09:18.850Z,18.26
2017-05-13T17:10:19.544Z,18.29
2017-05-13T17:11:20.221Z,18.33
2017-05-13T17:12:20.916Z,18.33
2017-05-13T17:13:21.603Z,18.29
2017-05-13T17:14:22.284Z,18.2
2017-05-13T17:15:22.978Z,18.23
2017-05-13T17:16:23.667Z,18.23
2017-05-13T17:17:24.371Z,18.33
2017-05-13T17:18:25.083Z,18.31
2017-05-13T17:19:25.780Z,18.35
2017-05-13T17:20:26.461Z,18.35
2017-05-13T17:21:27.141Z,18.37
2017-05-13T17:22:27.841Z,18.38
2017-05-13T17:23:28.565Z,18.4
2017-05-13T17:24:29.243Z,18.43
2017-05-13T17:25:29.920Z,18.41
2017-05-13T17:26:30.593Z,18.35
2017-05-13T17:27:31.271Z,18.38
2017-05-13T17:28:32.002Z,18.33
2017-05-13T17:29:32.707Z,18.33
2017-05-13T17:30:33.390Z,18.43
2017-05-13T17:31:34.107Z,18.34
2017-05-13T17:32:34.809Z,18.37
2017-05-13T17:33:35.505Z,18.37
2017-05-13T17:34:36.207Z,18.35
2017-05-13T17:35:36.898Z,18.38
2017-05-13T17:36:37.598Z,18.37
2017-05-13T17:37:38.342Z,18.29
2017-05-13T17:38:39.043Z,18.34
2017-05-13T17:39:39.792Z,18.35
2017-05-13T17:40:40.462Z,18.43
2017-05-13T17:41:41.141Z,18.29
2017-05-13T17:42:41.821Z,18.28
2017-05-13T17:43:42.509Z,18.37
2017-05-13T17:44:43.197Z,18.38
2017-05-13T17:45:43.942Z,18.29
2017-05-13T17:46:44.684Z,18.28
2017-05-13T17:47:45.378Z,18.29
2017-05-13T17:48:46.076Z,18.31
2017-05-13T17:49:46.780Z,18.31
2017-05-13T17:50:47.500Z,18.28
2017-05-13T17:51:48.157Z,18.2
2017-05-13T17:52:48.837Z,18.13
2017-05-13T17:53:49.531Z,18.15
2017-05-13T17:54:50.225Z,18.04
2017-05-13T17:55:50.910Z,18.07
2017-05-13T17:56:51.592Z,18.07
2017-05-13T17:57:52.265Z,18.05
2017-05-13T17:58:52.985Z,18.01
2017-05-13T17:59:53.696Z,18.07
2017-05-13T18:00:54.368Z,18.04
2017-05-13T18:01:55.048Z,17.98
2017-05-13T18:02:55.737Z,18.03
2017-05-13T18:03:56.434Z,18.03
2017-05-13T18:04:57.126Z,18.1
2017-05-13T18:05:57.819Z,18.04
2017-05-13T18:06:58.511Z,17.95
2017-05-13T18:07:59.193Z,17.9
2017-05-13T18:08:59.905Z,17.87
2017-05-13T18:10:00.571Z,17.98
2017-05-13T18:11:01.239Z,17.83
2017-05-13T18:12:01.962Z,17.87
2017-05-13T18:13:02.685Z,17.8
2017-05-13T18:14:03.381Z,17.79
2017-05-13T18:15:04.087Z,17.8
2017-05-13T18:16:04.767Z,17.68
2017-05-13T18:17:05.465Z,17.74
2017-05-13T18:18:06.164Z,17.72
2017-05-13T18:19:06.845Z,17.64
2017-05-13T18:20:07.548Z,17.64
2017-05-13T18:21:08.221Z,17.57
2017-05-13T18:22:08.901Z,17.49
2017-05-13T18:23:09.569Z,17.49
2017-05-13T18:24:10.248Z,17.45
2017-05-13T18:25:10.981Z,17.39
2017-05-13T18:26:11.683Z,17.42
2017-05-13T18:27:12.359Z,17.29
2017-05-13T18:28:13.075Z,17.27
2017-05-13T18:29:13.757Z,17.39
2017-05-13T18:30:14.451Z,17.24
2017-05-13T18:31:15.145Z,17.27
2017-05-13T18:32:15.834Z,17.3
2017-05-13T18:33:16.561Z,17.22
2017-05-13T18:34:17.250Z,17.2
2017-05-13T18:35:17.935Z,17.23
2017-05-13T18:36:18.618Z,17.09
2017-05-13T18:37:19.300Z,17.09
2017-05-13T18:38:19.986Z,17.06
2017-05-13T18:39:20.708Z,17.11
2017-05-13T18:40:21.398Z,17.12
2017-05-13T18:41:22.081Z,17.14
2017-05-13T18:42:22.759Z,17.06
2017-05-13T18:43:23.486Z,17.11
2017-05-13T18:44:24.196Z,17.05
2017-05-13T18:45:24.879Z,17.04
2017-05-13T18:46:25.605Z,17.05
2017-05-13T18:47:26.271Z,17.08
2017-05-13T18:48:26.946Z,17.08
2017-05-13T18:49:27.631Z,17.08
2017-05-13T18:50:28.304Z,17.04
2017-05-13T18:51:29.006Z,17.02
2017-05-13T18:52:29.725Z,16.96
2017-05-13T18:53:30.456Z,16.99
2017-05-13T18:54:31.122Z,16.94
2017-05-13T18:55:31.792Z,16.96
2017-05-13T18:56:32.475Z,16.97
2017-05-13T18:57:33.207Z,16.86
2017-05-13T18:58:33.889Z,16.9
2017-05-13T18:59:34.595Z,16.89
2017-05-13T19:00:35.278Z,16.87
2017-05-13T19:01:35.978Z,16.84
2017-05-13T19:02:36.689Z,16.74
2017-05-13T19:03:37.350Z,16.75
2017-05-13T19:04:38.018Z,16.72
2017-05-13T19:05:38.731Z,16.75
2017-05-13T19:06:39.449Z,16.64
2017-05-13T19:07:40.182Z,16.5
2017-05-13T19:08:40.886Z,16.53
2017-05-13T19:09:41.572Z,16.46
2017-05-13T19:10:42.247Z,16.32
2017-05-13T19:11:42.996Z,16.29
2017-05-13T19:12:43.701Z,16.23
2017-05-13T19:13:44.410Z,16.09
2017-05-13T19:14:45.081Z,16.09
2017-05-13T19:15:45.763Z,16.01
2017-05-13T19:16:46.446Z,15.95
2017-05-13T19:17:47.138Z,15.98
2017-05-13T19:18:47.831Z,15.79
2017-05-13T19:19:48.513Z,15.68
2017-05-13T19:20:49.189Z,15.64
2017-05-13T19:21:49.889Z,15.68
2017-05-13T19:22:50.581Z,15.61
2017-05-13T19:23:51.255Z,15.51
2017-05-13T19:24:51.951Z,15.47
2017-05-13T19:25:52.650Z,15.33
2017-05-13T19:26:53.321Z,15.39
2017-05-13T19:27:54.021Z,15.33
2017-05-13T19:28:54.703Z,15.31
2017-05-13T19:29:55.388Z,15.27
2017-05-13T19:30:56.058Z,15.25
2017-05-13T19:31:56.733Z,15.31
2017-05-13T19:32:57.408Z,15.36
2017-05-13T19:33:58.081Z,15.28
2017-05-13T19:34:58.760Z,15.27
2017-05-13T19:35:59.465Z,15.24
2017-05-13T19:37:00.173Z,15.09
2017-05-13T19:38:00.861Z,15.21
2017-05-13T19:39:01.582Z,15.03
2017-05-13T19:40:02.259Z,15.14
2017-05-13T19:41:02.960Z,15.19
2017-05-13T19:42:03.637Z,15.22
2017-05-13T19:43:04.322Z,15.27
2017-05-13T19:44:04.996Z,15.24
2017-05-13T19:45:05.672Z,15.27
2017-05-13T19:46:06.374Z,15.4
2017-05-13T19:47:07.066Z,15.33
2017-05-13T19:48:07.740Z,15.31
2017-05-13T19:49:08.417Z,15.25
2017-05-13T19:50:09.103Z,15.37
2017-05-13T19:51:09.804Z,15.25
2017-05-13T19:52:10.473Z,15.29
2017-05-13T19:53:11.146Z,15.24
2017-05-13T19:54:11.821Z,15.15
2017-05-13T19:55:12.491Z,15.21
2017-05-13T19:56:13.165Z,15.21
2017-05-13T19:57:13.849Z,15.24
2017-05-13T19:58:14.557Z,15.22
2017-05-13T19:59:15.241Z,15.28
2017-05-13T20:00:15.939Z,15.27
2017-05-13T20:01:16.633Z,15.25
2017-05-13T20:02:17.306Z,15.31
2017-05-13T20:03:18.014Z,15.25
2017-05-13T20:04:18.699Z,15.31
2017-05-13T20:05:19.411Z,15.28
2017-05-13T20:06:20.073Z,15.25
2017-05-13T20:07:20.758Z,15.35
2017-05-13T20:08:21.463Z,15.22
2017-05-13T20:09:22.137Z,15.19
2017-05-13T20:10:22.825Z,15.19
2017-05-13T20:11:23.494Z,15.19
2017-05-13T20:12:24.170Z,15.17
2017-05-13T20:13:24.862Z,15.19
2017-05-13T20:14:25.572Z,15.17
2017-05-13T20:15:26.252Z,15.06
2017-05-13T20:16:26.955Z,15.07
2017-05-13T20:17:27.637Z,14.99
2017-05-13T20:18:28.307Z,15
2017-05-13T20:19:28.985Z,14.88
2017-05-13T20:20:29.699Z,14.88
2017-05-13T20:21:30.381Z,14.88
2017-05-13T20:22:31.105Z,14.91
2017-05-13T20:23:31.793Z,14.81
2017-05-13T20:24:32.474Z,14.84
2017-05-13T20:25:33.165Z,14.82
2017-05-13T20:26:33.850Z,14.85
2017-05-13T20:27:34.571Z,14.88
2017-05-13T20:28:35.243Z,14.82
2017-05-13T20:29:35.942Z,14.77
2017-05-13T20:30:36.643Z,14.77
2017-05-13T20:31:37.306Z,14.82
2017-05-13T20:32:37.981Z,14.79
2017-05-13T20:33:38.647Z,14.73
2017-05-13T20:34:39.336Z,14.79
2017-05-13T20:35:40.019Z,14.72
2017-05-13T20:36:40.726Z,14.82
2017-05-13T20:37:41.398Z,14.85
2017-05-13T20:38:42.067Z,14.82
2017-05-13T20:39:42.739Z,14.82
2017-05-13T20:40:43.414Z,14.77
2017-05-13T20:41:44.091Z,14.82
2017-05-13T20:42:44.782Z,14.81
2017-05-13T20:43:45.489Z,14.88
2017-05-13T20:44:46.202Z,14.78
2017-05-13T20:45:46.872Z,14.79
2017-05-13T20:46:47.551Z,14.69
2017-05-13T20:47:48.249Z,14.66
2017-05-13T20:48:48.938Z,14.72
2017-05-13T20:49:49.625Z,14.69
2017-05-13T20:50:50.301Z,14.68
2017-05-13T20:51:50.998Z,14.69
2017-05-13T20:52:51.679Z,14.72
2017-05-13T20:53:52.345Z,14.7
2017-05-13T20:54:53.017Z,14.82
2017-05-13T20:55:53.693Z,14.77
2017-05-13T20:56:54.400Z,14.84
2017-05-13T20:57:55.107Z,14.78
2017-05-13T20:58:55.801Z,14.85
2017-05-13T20:59:56.477Z,14.84
2017-05-13T21:00:57.178Z,14.86
2017-05-13T21:01:57.866Z,14.82
2017-05-13T21:02:58.552Z,14.82
2017-05-13T21:03:59.224Z,14.84
2017-05-13T21:04:59.916Z,14.86
2017-05-13T21:06:00.594Z,14.81
2017-05-13T21:07:01.290Z,14.81
2017-05-13T21:08:02.014Z,14.86
2017-05-13T21:09:02.685Z,14.84
2017-05-13T21:10:03.356Z,14.84
2017-05-13T21:11:04.030Z,14.84
2017-05-13T21:12:04.716Z,14.84
2017-05-13T21:13:05.398Z,14.86
2017-05-13T21:14:06.094Z,14.86
2017-05-13T21:15:06.817Z,14.88
2017-05-13T21:16:07.504Z,14.85
2017-05-13T21:17:08.161Z,14.86
2017-05-13T21:18:08.843Z,14.84
2017-05-13T21:19:09.521Z,14.86
2017-05-13T21:20:10.188Z,14.99
2017-05-13T21:21:10.876Z,14.92
2017-05-13T21:22:11.599Z,14.92
2017-05-13T21:23:12.297Z,14.97
2017-05-13T21:24:13.004Z,14.92
2017-05-13T21:25:13.696Z,14.89
2017-05-13T21:26:14.389Z,14.88
2017-05-13T21:27:15.081Z,14.86
2017-05-13T21:28:16.202Z,14.94
2017-05-13T21:29:17.404Z,14.97
2017-05-13T21:30:18.421Z,15.02